Flight Track Log - Related Links

Times and Time Zones

All times are in EDT time to prevent confusion due to time zone crossing. See the TAM3766 flight status page for this flight to view local times or setup timezone preferences in your user account.

Time Position Orientation Groundspeed Altitude Reporting Facility
EDT Latitude Longitude Course Direction KTS MPH feet Rate Location/Type
Wed 11:34:51 AM -22.7780 -43.1870 55° Northeast 203 234 1,100  Level FlightAware ADS-B
Wed 11:35:23 AM -22.7510 -43.1670 34° Northeast 233 268 2,200 2,464 Climbing FlightAware ADS-B
Wed 11:35:47 AM -22.7270 -43.1540 27° Northeast 236 272 3,400 2,727 Climbing FlightAware ADS-B
Wed 11:35:56 AM -22.7210 -43.1470 47° Northeast 236 272 3,700 1,920 Climbing FlightAware ADS-B
Wed 11:36:12 AM -22.7160 -43.1280 74° East 243 280 4,200 2,836 Climbing FlightAware ADS-B
Wed 11:36:51 AM -22.7160 -43.0600 90° East 267 307 6,300 2,329 Climbing FlightAware ADS-B
Wed 11:37:37 AM -22.6780 -43.0180 46° Northeast 293 337 7,500 1,974 Climbing FlightAware ADS-B
Wed 11:38:07 AM -22.6400 -43.0330 340° North 290 334 8,800 2,379 Climbing FlightAware ADS-B
Wed 11:38:35 AM -22.6050 -43.0500 336° Northwest 299 344 9,800 1,853 Climbing FlightAware ADS-B
Wed 11:39:15 AM -22.5520 -43.0740 337° Northwest 326 375 10,900 1,263 Climbing FlightAware ADS-B
Wed 11:39:51 AM -22.4990 -43.0980 337° Northwest 360 414 11,400 1,421 Climbing FlightAware ADS-B
Wed 11:40:31 AM -22.4360 -43.1260 338° Northwest 372 428 12,700 2,047 Climbing FlightAware ADS-B
Wed 11:41:16 AM -22.3640 -43.1590 337° Northwest 376 433 14,300 2,000 Climbing FlightAware ADS-B
Wed 11:41:52 AM -22.3050 -43.1850 338° Northwest 385 443 15,400 1,725 Climbing FlightAware ADS-B
Wed 11:42:36 AM -22.2310 -43.2180 338° Northwest 393 452 16,600 1,538 Climbing FlightAware ADS-B
Wed 11:43:10 AM -22.1730 -43.2440 337° Northwest 401 461 17,400 1,425 Climbing FlightAware ADS-B
Wed 11:43:56 AM -22.1010 -43.2770 337° Northwest 407 468 18,500 1,364 Climbing FlightAware ADS-B
Wed 11:44:38 AM -22.0290 -43.3090 338° Northwest 413 475 19,400 1,329 Climbing FlightAware ADS-B
Wed 11:46:34 AM -21.8470 -43.3560 347° North 423 487 22,000 1,313 Climbing FlightAware ADS-B
Wed 11:47:18 AM -21.7350 -43.3550 360° North 438 504 22,900 1,266 Climbing FlightAware ADS-B
Wed 11:48:23 AM -21.5980 -43.3540 360° North 443 510 24,300 1,168 Climbing FlightAware ADS-B
Wed 11:49:11 AM -21.5010 -43.3520 North 450 518 25,100 1,079 Climbing FlightAware ADS-B
Wed 11:49:52 AM -21.4070 -43.3510 North 454 522 25,900 1,098 Climbing FlightAware ADS-B
Wed 11:50:33 AM -21.3320 -43.3510 360° North 455 524 26,600 1,011 Climbing FlightAware ADS-B
Wed 11:51:27 AM -21.2030 -43.3600 356° North 460 529 27,500 932 Climbing FlightAware ADS-B
Wed 11:52:16 AM -21.1050 -43.3910 344° North 459 528 28,200 867 Climbing FlightAware ADS-B
Wed 11:52:57 AM -21.0350 -43.4300 333° Northwest 459 528 28,800 815 Climbing FlightAware ADS-B
Wed 11:53:37 AM -20.9700 -43.4810 324° Northwest 459 528 29,300 815 Climbing FlightAware ADS-B
Wed 11:54:18 AM -20.9070 -43.5510 314° West 460 529 29,900 889 Climbing FlightAware ADS-B
Wed 11:54:58 AM -20.8610 -43.6250 304° West 458 527 30,500 880 Climbing FlightAware ADS-B
Wed 11:55:33 AM -20.8260 -43.6870 301° West 456 525 31,000 1,098 Climbing FlightAware ADS-B
Wed 11:56:20 AM -20.7540 -43.8040 303° West 457 526 32,000 1,241 Climbing FlightAware ADS-B
Wed 11:57:00 AM -20.6900 -43.8620 320° Northwest 450 518 32,800 1,271 Climbing FlightAware ADS-B
Wed 11:57:45 AM -20.6200 -43.9260 319° Northwest 439 505 33,800 818 Climbing FlightAware ADS-B
Wed 11:58:28 AM -20.5510 -43.9890 319° Northwest 446 513 34,000 141 Climbing FlightAware ADS-B
Wed 11:59:10 AM -20.4860 -44.0490 319° Northwest 449 517 34,000  Level FlightAware ADS-B
Wed 11:59:50 AM -20.4230 -44.1060 320° Northwest 447 514 34,000  Level FlightAware ADS-B
Wed 12:00:49 PM -20.3530 -44.1620 323° Northwest 449 517 34,000  Level FlightAware ADS-B
Wed 12:01:36 PM -20.2440 -44.2430 325° Northwest 445 512 34,000  Level FlightAware ADS-B
Wed 12:02:16 PM -20.1760 -44.2940 325° Northwest 445 512 34,000  Level FlightAware ADS-B
Wed 12:02:58 PM -20.1060 -44.3460 325° Northwest 445 512 34,000  Level FlightAware ADS-B
Wed 12:03:42 PM -20.0310 -44.4020 325° Northwest 445 512 34,000  Level FlightAware ADS-B
Wed 12:04:18 PM -19.9700 -44.4470 325° Northwest 445 512 34,000  Level FlightAware ADS-B
Wed 12:05:02 PM -19.8950 -44.5030 325° Northwest 447 514 34,000  Level FlightAware ADS-B
Wed 12:05:48 PM -19.8180 -44.5600 325° Northwest 448 516 34,000  Level FlightAware ADS-B
Wed 12:06:24 PM -19.7610 -44.6020 325° Northwest 448 516 34,000  Level FlightAware ADS-B
Wed 12:07:08 PM -19.6850 -44.6580 325° Northwest 448 516 34,000  Level FlightAware ADS-B
Wed 12:07:53 PM -19.6070 -44.7160 325° Northwest 448 516 34,000  Level FlightAware ADS-B
Wed 12:08:47 PM -19.5190 -44.7810 325° Northwest 449 517 34,000  Level FlightAware ADS-B
Wed 12:09:33 PM -19.4350 -44.8420 326° Northwest 448 516 34,000  Level FlightAware ADS-B
Wed 12:10:13 PM -19.3740 -44.8870 325° Northwest 448 516 34,000  Level FlightAware ADS-B
Wed 12:10:53 PM -19.2990 -44.9430 325° Northwest 448 516 34,000  Level FlightAware ADS-B
Wed 12:11:52 PM -19.2140 -45.0060 325° Northwest 448 516 34,000  Level FlightAware ADS-B
Wed 12:12:38 PM -19.1270 -45.0690 326° Northwest 448 516 34,000  Level FlightAware ADS-B
Wed 12:13:18 PM -19.0540 -45.1220 326° Northwest 448 516 34,000  Level FlightAware ADS-B
Wed 12:13:43 PM -19.0100 -45.1540 325° Northwest 448 516 34,000  Level FlightAware ADS-B
Wed 12:14:25 PM -18.9400 -45.2060 325° Northwest 446 513 34,000  Level FlightAware ADS-B
Wed 12:15:37 PM -18.8310 -45.2860 325° Northwest 446 513 34,000  Level FlightAware ADS-B
Wed 12:17:21 PM -18.6960 -45.3850 325° Northwest 443 510 34,000  Level FlightAware ADS-B
Wed 12:18:02 PM -18.6020 -45.4520 326° Northwest 439 505 34,000  Level FlightAware ADS-B
Wed 12:18:36 PM -18.5210 -45.5110 325° Northwest 440 506 34,000  Level FlightAware ADS-B
Wed 12:19:18 PM -18.4450 -45.5660 326° Northwest 441 507 34,000  Level FlightAware ADS-B
Wed 12:19:58 PM -18.3730 -45.6120 329° Northwest 443 510 34,000  Level FlightAware ADS-B
Wed 12:20:39 PM -18.3020 -45.6570 329° Northwest 443 510 34,000  Level FlightAware ADS-B
Wed 12:21:18 PM -18.2380 -45.6970 329° Northwest 443 510 34,000  Level FlightAware ADS-B
Wed 12:21:58 PM -18.1680 -45.7410 329° Northwest 441 507 34,000  Level FlightAware ADS-B
Wed 12:22:43 PM -18.0840 -45.7940 329° Northwest 440 506 34,000  Level FlightAware ADS-B
Wed 12:23:23 PM -18.0140 -45.8380 329° Northwest 439 505 34,000  Level FlightAware ADS-B
Wed 12:24:03 PM -17.9470 -45.8800 329° Northwest 440 506 34,000  Level FlightAware ADS-B
Wed 12:24:52 PM -17.8740 -45.9260 329° Northwest 440 506 34,000  Level FlightAware ADS-B
Wed 12:25:29 PM -17.8190 -45.9600 330° Northwest 440 506 34,000  Level FlightAware ADS-B
Wed 12:26:31 PM -17.7270 -46.0180 329° Northwest 440 506 34,000  Level FlightAware ADS-B
Wed 12:27:06 PM -17.6750 -46.0510 329° Northwest 440 506 34,000  Level FlightAware ADS-B
Wed 12:27:53 PM -17.6060 -46.0950 329° Northwest 440 506 34,000  Level FlightAware ADS-B
Wed 12:28:30 PM -17.5510 -46.1300 329° Northwest 440 506 34,000  Level FlightAware ADS-B
Wed 12:29:30 PM -17.4620 -46.1860 329° Northwest 440 506 34,000  Level FlightAware ADS-B
Wed 12:29:54 PM -17.4260 -46.2080 330° Northwest 440 506 34,000  Level FlightAware ADS-B
Wed 12:31:36 PM -17.2750 -46.3030 329° Northwest 440 506 34,000  Level FlightAware ADS-B
Wed 12:32:24 PM -17.2040 -46.3480 329° Northwest 440 506 34,000  Level FlightAware ADS-B
Wed 12:33:01 PM -17.1490 -46.3830 329° Northwest 440 506 34,000  Level FlightAware ADS-B
Wed 12:33:35 PM -17.0980 -46.4140 330° Northwest 440 506 34,000  Level FlightAware ADS-B
Wed 12:36:00 PM -16.9188 -46.6018 315° West  Level Estimated
Wed 12:37:00 PM -16.8446 -46.6795 315° West  Level Estimated
Wed 12:38:00 PM -16.7703 -46.7570 315° West  Level Estimated
Wed 12:39:00 PM -16.6961 -46.8345 315° West  Level Estimated
Wed 12:40:00 PM -16.6218 -46.9120 315° West  Level Estimated
Wed 12:41:00 PM -16.5474 -46.9893 315° West  Level Estimated
Wed 12:41:56 PM -16.0770 -47.0300 315° West 444 511 34,000  Level FlightAware ADS-B
Wed 12:42:00 PM -16.4731 -47.0667 315° West  Level Estimated
Wed 12:42:38 PM -15.9740 -47.0940 329° Northwest 445 512 34,000  Level FlightAware ADS-B
Wed 12:43:22 PM -15.9030 -47.1410 328° Northwest 442 509 34,000  Level FlightAware ADS-B
Wed 12:44:03 PM -15.8370 -47.2060 317° Northwest 439 505 34,000  Level FlightAware ADS-B
Wed 12:44:43 PM -15.7780 -47.2640 317° Northwest 439 505 34,000  Level FlightAware ADS-B
Wed 12:44:54 PM -15.7630 -47.2790 316° Northwest 438 504 34,000  Level FlightAware ADS-B
Wed 12:46:18 PM -15.6650 -47.3750 317° Northwest 439 505 34,000  Level FlightAware ADS-B
Wed 12:47:00 PM -15.5750 -47.4620 317° Northwest 439 505 34,000  Level FlightAware ADS-B
Wed 12:47:38 PM -15.5190 -47.5160 317° Northwest 438 504 34,000  Level FlightAware ADS-B
Wed 12:48:16 PM -15.4620 -47.5710 317° Northwest 437 503 34,000  Level FlightAware ADS-B
Wed 12:49:02 PM -15.3940 -47.6370 317° Northwest 437 503 34,000  Level FlightAware ADS-B
Wed 12:49:42 PM -15.3360 -47.6930 317° Northwest 437 503 34,000  Level FlightAware ADS-B
Wed 12:50:10 PM -15.2960 -47.7320 317° Northwest 437 503 34,000  Level FlightAware ADS-B
Wed 12:50:53 PM -15.2350 -47.7910 317° Northwest 437 503 34,000  Level FlightAware ADS-B
Wed 12:51:32 PM -15.1720 -47.8510 317° Northwest 438 504 34,000  Level FlightAware ADS-B
Wed 12:52:12 PM -15.1140 -47.9080 317° Northwest 438 504 34,000  Level FlightAware ADS-B
Wed 12:52:53 PM -15.0550 -47.9640 317° Northwest 438 504 34,000  Level FlightAware ADS-B
Wed 12:53:28 PM -15.0010 -48.0160 317° Northwest 437 503 34,000  Level FlightAware ADS-B
Wed 12:54:32 PM -14.9050 -48.1090 317° Northwest 438 504 34,000  Level FlightAware ADS-B
Wed 12:55:14 PM -14.8420 -48.1700 317° Northwest 439 505 34,000  Level FlightAware ADS-B
Wed 12:55:55 PM -14.7850 -48.2240 318° Northwest 439 505 34,000  Level FlightAware ADS-B
Wed 12:56:35 PM -14.7220 -48.2850 317° Northwest 438 504 34,000  Level FlightAware ADS-B
Wed 12:57:25 PM -14.6490 -48.3550 317° Northwest 439 505 34,000  Level FlightAware ADS-B
Wed 12:58:05 PM -14.5880 -48.4140 317° Northwest 440 506 34,000  Level FlightAware ADS-B
Wed 12:58:50 PM -14.5220 -48.4760 318° Northwest 440 506 34,000  Level FlightAware ADS-B
Wed 12:59:25 PM -14.4680 -48.5280 317° Northwest 441 507 34,000  Level FlightAware ADS-B
Wed 01:00:30 PM -14.3790 -48.6140 317° Northwest 441 507 34,000  Level FlightAware ADS-B
Wed 01:01:35 PM -14.2740 -48.7140 317° Northwest 442 509 34,000  Level FlightAware ADS-B
Wed 01:02:08 PM -14.2230 -48.7620 318° Northwest 442 509 34,000  Level FlightAware ADS-B
Wed 01:03:09 PM -14.1340 -48.8470 317° Northwest 443 510 34,000  Level FlightAware ADS-B
Wed 01:03:42 PM -14.0850 -48.8940 317° Northwest 443 510 34,000  Level FlightAware ADS-B
Wed 01:04:22 PM -14.0350 -48.9410 318° Northwest 444 511 34,000  Level FlightAware ADS-B
Wed 01:04:57 PM -13.9710 -49.0020 317° Northwest 444 511 34,000  Level FlightAware ADS-B
Wed 01:05:34 PM -13.9230 -49.0480 317° Northwest 444 511 34,000  Level FlightAware ADS-B
Wed 01:06:22 PM -13.8620 -49.1070 317° Northwest 444 511 34,000  Level FlightAware ADS-B
Wed 01:06:59 PM -13.8150 -49.1520 317° Northwest 444 511 34,000  Level FlightAware ADS-B
Wed 01:07:47 PM -13.7270 -49.2340 318° Northwest 442 509 34,000  Level FlightAware ADS-B
Wed 01:08:37 PM -13.6630 -49.2950 317° Northwest 442 509 34,000  Level FlightAware ADS-B
Wed 01:09:13 PM -13.6180 -49.3390 316° Northwest 442 509 34,000  Level FlightAware ADS-B
Wed 01:09:49 PM -13.5720 -49.3830 317° Northwest 442 509 34,000  Level FlightAware ADS-B
Wed 01:10:37 PM -13.5110 -49.4410 317° Northwest 442 509 34,000  Level FlightAware ADS-B
Wed 01:11:47 PM -13.4220 -49.5270 317° Northwest 442 509 34,000  Level FlightAware ADS-B
Wed 01:12:34 PM -13.3620 -49.5840 317° Northwest 442 509 34,000  Level FlightAware ADS-B
Wed 01:13:11 PM -13.3150 -49.6290 317° Northwest 442 509 34,000  Level FlightAware ADS-B
Wed 01:14:00 PM -13.2530 -49.6890 317° Northwest 442 509 34,000  Level FlightAware ADS-B
Wed 01:14:40 PM -13.0970 -49.8280 319° Northwest 444 511 34,000  Level FlightAware ADS-B
Wed 01:16:11 PM -12.9810 -49.9390 317° Northwest 444 511 34,000  Level FlightAware ADS-B
Wed 01:16:49 PM -12.9320 -49.9860 317° Northwest 444 511 34,000  Level FlightAware ADS-B
Wed 01:17:34 PM -12.8650 -50.0460 319° Northwest 443 510 34,000  Level FlightAware ADS-B
Wed 01:18:29 PM -12.8330 -50.0770 317° Northwest 444 511 34,000 336 Level FlightAware ADS-B
Wed 01:19:39 PM -12.6810 -50.2190 318° Northwest 445 512 34,700 661 Climbing FlightAware ADS-B
Wed 01:20:36 PM -12.5530 -50.3380 318° Northwest 445 512 35,400 583 Climbing FlightAware ADS-B
Wed 01:21:22 PM -12.4840 -50.4030 317° Northwest 442 509 35,700 336 Climbing FlightAware ADS-B
Wed 01:22:23 PM -12.3880 -50.4930 318° Northwest 438 504 36,000 173 Climbing FlightAware ADS-B
Wed 01:23:06 PM -12.3190 -50.5560 318° Northwest 438 504 36,000  Level FlightAware ADS-B
Wed 01:24:03 PM -12.2360 -50.6340 317° Northwest 438 504 36,000  Level FlightAware ADS-B
Wed 01:24:42 PM -12.1870 -50.6810 317° Northwest 438 504 36,000  Level FlightAware ADS-B
Wed 01:25:18 PM -12.1420 -50.7240 317° Northwest 438 504 36,000  Level FlightAware ADS-B
Wed 01:26:03 PM -12.0600 -50.7970 319° Northwest 436 502 36,000  Level FlightAware ADS-B
Wed 01:26:44 PM -11.9960 -50.8570 317° Northwest 437 503 36,000  Level FlightAware ADS-B
Wed 01:28:22 PM -11.9630 -50.8880 317° Northwest 437 503 36,000  Level FlightAware ADS-B
Wed 01:28:59 PM -11.9490 -50.9020 316° Northwest 437 503 36,000  Level FlightAware ADS-B
Wed 01:29:47 PM -11.8890 -50.9590 317° Northwest 437 503 36,000  Level FlightAware ADS-B
Wed 01:30:33 PM -11.6720 -51.1580 318° Northwest 438 504 36,000  Level FlightAware ADS-B
Wed 01:31:12 PM -11.6230 -51.2040 317° Northwest 438 504 36,000  Level FlightAware ADS-B
Wed 01:32:13 PM -11.5070 -51.3110 318° Northwest 439 505 36,000  Level FlightAware ADS-B
Wed 01:32:49 PM -11.4620 -51.3540 317° Northwest 439 505 36,000  Level FlightAware ADS-B
Wed 01:33:34 PM -11.3780 -51.4300 318° Northwest 441 507 36,000  Level FlightAware ADS-B
Wed 01:34:10 PM -11.3220 -51.4810 318° Northwest 441 507 36,000  Level FlightAware ADS-B
Wed 01:34:51 PM -11.2630 -51.5360 318° Northwest 441 507 36,000  Level FlightAware ADS-B
Wed 01:35:34 PM -11.2050 -51.5900 318° Northwest 442 509 36,000  Level FlightAware ADS-B
Wed 01:36:26 PM -11.1200 -51.6670 318° Northwest 441 507 36,000  Level FlightAware ADS-B
Wed 01:38:03 PM -10.9870 -51.7920 317° Northwest 443 510 36,000  Level FlightAware ADS-B
Wed 01:38:39 PM -10.9410 -51.8360 317° Northwest 443 510 36,000  Level FlightAware ADS-B
Wed 01:39:25 PM -10.8820 -51.8910 318° Northwest 443 510 36,000  Level FlightAware ADS-B
Wed 01:40:01 PM -10.8360 -51.9350 317° Northwest 443 510 36,000  Level FlightAware ADS-B
Wed 01:40:51 PM -10.7730 -51.9950 317° Northwest 443 510 36,000  Level FlightAware ADS-B
Wed 01:41:27 PM -10.7270 -52.0390 317° Northwest 443 510 36,000  Level FlightAware ADS-B
Wed 01:42:04 PM -10.6800 -52.0840 317° Northwest 443 510 36,000  Level FlightAware ADS-B
Wed 01:43:04 PM -10.6030 -52.1560 317° Northwest 443 510 36,000  Level FlightAware ADS-B
Wed 01:43:40 PM -10.5570 -52.2000 317° Northwest 443 510 36,000  Level FlightAware ADS-B
Wed 01:44:28 PM -10.4960 -52.2580 317° Northwest 443 510 36,000  Level FlightAware ADS-B
Wed 01:44:53 PM -10.4640 -52.2880 317° Northwest 443 510 36,000  Level FlightAware ADS-B
Wed 01:46:13 PM -10.3620 -52.3840 317° Northwest 443 510 36,000  Level FlightAware ADS-B
Wed 01:46:49 PM -10.3170 -52.4280 316° Northwest 443 510 36,000 -289 Level FlightAware ADS-B
Wed 01:49:00 PM -10.1595 -52.5973 313° West  Level Estimated
Wed 01:50:00 PM -10.0874 -52.6748 313° West  Level Estimated
Wed 01:51:00 PM -10.0152 -52.7522 313° West  Level Estimated
Wed 01:52:00 PM -9.9430 -52.8297 313° West  Level Estimated
Wed 01:53:00 PM -9.8708 -52.9070 313° West  Level Estimated
Wed 01:54:00 PM -9.7986 -52.9844 313° West  Level Estimated
Wed 01:55:00 PM -9.7264 -53.0617 313° West  Level Estimated
Wed 01:56:00 PM -9.6541 -53.1390 313° West  Level Estimated
Wed 01:57:00 PM -9.5819 -53.2162 313° West  Level Estimated
Wed 01:58:00 PM -9.5096 -53.2935 314° West  Level Estimated
Wed 01:59:00 PM -9.4373 -53.3706 314° West  Level Estimated
Wed 02:00:00 PM -9.3649 -53.4478 314° West  Level Estimated
Wed 02:01:00 PM -9.2926 -53.5249 314° West  Level Estimated
Wed 02:02:00 PM -9.2202 -53.6020 314° West  Level Estimated
Wed 02:03:00 PM -9.1479 -53.6791 314° West  Level Estimated
Wed 02:04:00 PM -9.0755 -53.7561 314° West  Level Estimated
Wed 02:05:00 PM -9.0031 -53.8331 314° West  Level Estimated
Wed 02:06:00 PM -8.9306 -53.9100 314° West  Level Estimated
Wed 02:07:00 PM -8.8582 -53.9870 314° West  Level Estimated
Wed 02:08:00 PM -8.7858 -54.0639 314° West  Level Estimated
Wed 02:09:00 PM -8.7133 -54.1407 314° West  Level Estimated
Wed 02:10:00 PM -8.6408 -54.2176 314° West  Level Estimated
Wed 02:11:00 PM -8.5683 -54.2944 314° West  Level Estimated
Wed 02:12:00 PM -8.4958 -54.3712 314° West  Level Estimated
Wed 02:13:00 PM -8.4233 -54.4479 314° West  Level Estimated
Wed 02:14:00 PM -8.3507 -54.5246 314° West  Level Estimated
Wed 02:15:00 PM -8.2782 -54.6013 314° West  Level Estimated
Wed 02:16:00 PM -8.2056 -54.6780 314° West  Level Estimated
Wed 02:17:00 PM -8.1330 -54.7547 314° West  Level Estimated
Wed 02:18:00 PM -8.0604 -54.8313 314° West  Level Estimated
Wed 02:19:00 PM -7.9878 -54.9078 314° West  Level Estimated
Wed 02:20:00 PM -7.9152 -54.9844 314° West  Level Estimated
Wed 02:21:00 PM -7.8425 -55.0609 314° West  Level Estimated
Wed 02:22:00 PM -7.7698 -55.1374 314° West  Level Estimated
Wed 02:23:00 PM -7.6972 -55.2139 314° West  Level Estimated
Wed 02:24:00 PM -7.6245 -55.2904 314° West  Level Estimated
Wed 02:25:00 PM -7.5518 -55.3668 314° West  Level Estimated
Wed 02:26:00 PM -7.4791 -55.4432 314° West  Level Estimated
Wed 02:27:00 PM -7.4064 -55.5196 314° West  Level Estimated
Wed 02:28:00 PM -7.3336 -55.5959 314° West  Level Estimated
Wed 02:29:00 PM -7.2609 -55.6722 314° West  Level Estimated
Wed 02:30:00 PM -7.1881 -55.7485 314° West  Level Estimated
Wed 02:31:00 PM -7.1153 -55.8248 314° West  Level Estimated
Wed 02:32:00 PM -7.0425 -55.9011 314° West  Level Estimated
Wed 02:33:00 PM -6.9697 -55.9773 314° West  Level Estimated
Wed 02:34:00 PM -6.8969 -56.0535 314° West  Level Estimated
Wed 02:35:00 PM -6.8241 -56.1297 314° West  Level Estimated
Wed 02:36:00 PM -6.7512 -56.2058 314° West  Level Estimated
Wed 02:37:00 PM -6.6784 -56.2820 314° West  Level Estimated
Wed 02:38:00 PM -6.6055 -56.3581 314° West  Level Estimated
Wed 02:39:00 PM -6.5327 -56.4342 314° West  Level Estimated
Wed 02:40:00 PM -6.4598 -56.5102 314° West  Level Estimated
Wed 02:41:00 PM -6.3869 -56.5863 314° West  Level Estimated
Wed 02:42:00 PM -6.3140 -56.6623 314° West  Level Estimated
Wed 02:43:00 PM -6.2411 -56.7383 314° West  Level Estimated
Wed 02:44:00 PM -6.1681 -56.8143 314° West  Level Estimated
Wed 02:45:00 PM -6.0952 -56.8902 314° West  Level Estimated
Wed 02:46:00 PM -6.0222 -56.9662 314° West  Level Estimated
Wed 02:47:00 PM -5.9493 -57.0421 314° West  Level Estimated
Wed 02:48:00 PM -5.8763 -57.1180 314° West  Level Estimated
Wed 02:49:00 PM -5.8033 -57.1939 314° West  Level Estimated
Wed 02:50:00 PM -5.7303 -57.2697 314° West  Level Estimated
Wed 02:51:00 PM -5.6573 -57.3456 314° West  Level Estimated
Wed 02:52:00 PM -5.5843 -57.4214 314° West  Level Estimated
Wed 02:53:00 PM -5.5113 -57.4972 314° West  Level Estimated
Wed 02:54:00 PM -5.4383 -57.5730 314° West  Level Estimated
Wed 02:55:00 PM -5.3652 -57.6487 314° West  Level Estimated
Wed 02:56:00 PM -5.2922 -57.7245 314° West  Level Estimated
Wed 02:57:00 PM -5.2191 -57.8002 314° West  Level Estimated
Wed 02:58:00 PM -5.1461 -57.8759 314° West  Level Estimated
Wed 02:59:00 PM -5.0730 -57.9516 314° West  Level Estimated
Wed 03:00:00 PM -4.9999 -58.0273 314° West  Level Estimated
Wed 03:01:00 PM -4.9268 -58.1030 314° West  Level Estimated
Wed 03:02:00 PM -4.8537 -58.1786 314° West  Level Estimated
Wed 03:03:00 PM -4.7806 -58.2542 314° West  Level Estimated
Wed 03:04:00 PM -4.7075 -58.3298 314° West  Level Estimated
Wed 03:05:00 PM -4.6343 -58.4054 314° West  Level Estimated
Wed 03:05:20 PM -3.4110 -59.5200 314° West 403 464 13,100  Level FlightAware ADS-B
Wed 03:06:00 PM -4.5612 -58.4810 314° West  Level Estimated
Wed 03:06:06 PM -3.3610 -59.5920 305° West 406 467 13,000  Level FlightAware ADS-B
Wed 03:06:56 PM -3.3140 -59.6600 305° West 361 415 13,000 -938 Level FlightAware ADS-B
Wed 03:07:42 PM -3.2820 -59.7320 294° West 360 414 11,500 -1,636 Descending FlightAware ADS-B
Wed 03:08:24 PM -3.2660 -59.7980 284° West 325 374 10,600 -1,457 Descending FlightAware ADS-B
Wed 03:08:52 PM -3.2560 -59.8380 284° West 309 356 9,800 -2,105 Descending FlightAware ADS-B
Wed 03:09:21 PM -3.2460 -59.8780 284° West 308 354 8,600 -2,316 Descending FlightAware ADS-B
Wed 03:09:49 PM -3.2370 -59.9160 283° West 300 345 7,600 -2,192 Descending FlightAware ADS-B
Wed 03:10:13 PM -3.2290 -59.9490 284° West 296 341 6,700 -2,222 Descending FlightAware ADS-B
Wed 03:10:43 PM -3.2190 -59.9870 285° West 293 337 5,600 -1,950 Descending FlightAware ADS-B
Wed 03:10:53 PM -3.2150 -60.0010 286° West 291 335 5,400 -727 Descending FlightAware ADS-B
Wed 03:11:49 PM -3.2010 -60.0520 285° West 264 304 4,800 -825 Descending FlightAware ADS-B
Wed 03:12:13 PM -3.1900 -60.0950 284° West 246 283 4,300 -894 Descending FlightAware ADS-B
Wed 03:12:36 PM -3.1830 -60.1210 285° West 244 281 4,100 -462 Descending FlightAware ADS-B
Wed 03:13:05 PM -3.1740 -60.1530 286° West 237 273 3,900 -700 Descending FlightAware ADS-B
Wed 03:13:36 PM -3.1660 -60.1840 284° West 235 270 3,400 -1,053 Descending FlightAware ADS-B
Wed 03:14:02 PM -3.1590 -60.2120 284° West 229 264 2,900 -980 Descending FlightAware ADS-B
Wed 03:14:25 PM -3.1500 -60.2340 292° West 224 258 2,600 -686 Descending FlightAware ADS-B
Wed 03:14:37 PM -3.1410 -60.2410 322° Northwest 220 253 2,500 -600 Descending FlightAware ADS-B
Wed 03:14:45 PM -3.1320 -60.2430 347° North 217 250 2,400 -400 Descending FlightAware ADS-B
Wed 03:15:37 PM -3.0930 -60.2230 27° Northeast 210 242 2,100 -214 Descending FlightAware ADS-B
Wed 03:16:09 PM -3.0630 -60.2020 35° Northeast 209 241 2,100  Level FlightAware ADS-B
Wed 03:16:37 PM -3.0420 -60.1860 37° Northeast 193 222 2,100  Level FlightAware ADS-B
Wed 03:16:53 PM -3.0380 -60.1720 74° East 196 226 2,100 -154 Level FlightAware ADS-B
Wed 03:17:16 PM -3.0380 -60.1530 90° East 180 207 2,000 -618 Descending FlightAware ADS-B
Wed 03:18:01 PM -3.0380 -60.1180 90° East 151 174 1,400 -761 Descending FlightAware ADS-B
Wed 03:18:27 PM -3.0380 -60.1010 90° East 145 167 1,100 -735 Descending FlightAware ADS-B
Wed 03:18:50 PM -3.0390 -60.0850 94° East 145 167 800 -818 Descending FlightAware ADS-B
Wed 03:19:11 PM -3.0380 -60.0710 86° East 144 166 500 -346 Descending FlightAware ADS-B
Wed 03:19:42 PM -3.0380 -60.0540 90° East 144 166 500  Level FlightAware ADS-B
Wed 03:21:38 PM -3.0360 -60.0410 81° East 20 23 -259 Descending FlightAware ADS-B
Wed 03:21:55 PM -3.0360 -60.0420 270° West 20 23  Level FlightAware ADS-B
Wed 03:24:00 PM -3.0386 -60.0497 251° West  Level Estimated
Wed 03:25:00 PM -3.0386 -60.0497 225° Southwest  Level Estimated
Wed 03:26:00 PM -3.0386 -60.0497 225° Southwest  Level Estimated
Wed 03:27:00 PM -3.0386 -60.0497 225° Southwest  Level Estimated
Wed 03:28:00 PM -3.0386 -60.0497 225° Southwest  Level Estimated
Wed 03:29:00 PM -3.0386 -60.0497 225° Southwest  Level Estimated
Wed 03:30:00 PM -3.0386 -60.0497 225° Southwest  Level Estimated
Wed 03:31:00 PM -3.0386 -60.0497 225° Southwest  Level Estimated
Wed 03:32:00 PM -3.0386 -60.0497 225° Southwest  Level Estimated
Wed 03:33:00 PM -3.0386 -60.0497 225° Southwest  Level Estimated
Wed 03:34:00 PM -3.0386 -60.0497 225° Southwest  Level Estimated
Wed 03:35:00 PM -3.0386 -60.0497 225° Southwest  Level Estimated
Wed 03:36:00 PM -3.0386 -60.0497 225° Southwest  Level Estimated
Wed 03:37:00 PM -3.0386 -60.0497 225° Southwest  Level Estimated
Wed 03:38:00 PM -3.0386 -60.0497 225° Southwest  Level Estimated
Wed 03:39:00 PM -3.0386 -60.0497 225° Southwest  Level Estimated
Wed 03:40:00 PM -3.0386 -60.0497 225° Southwest  Level Estimated
Wed 03:41:00 PM -3.0386 -60.0497 225° Southwest  Level Estimated
Wed 03:42:00 PM -3.0386 -60.0497 225° Southwest  Level Estimated
Wed 03:43:00 PM -3.0386 -60.0497 225° Southwest  Level Estimated
Wed 03:44:00 PM -3.0386 -60.0497 225° Southwest  Level Estimated
Wed 03:45:00 PM -3.0386 -60.0497 225° Southwest  Level Estimated
Wed 03:46:00 PM -3.0386 -60.0497 225° Southwest  Level Estimated
Wed 03:47:00 PM -3.0386 -60.0497 225° Southwest  Level Estimated
Wed 03:48:00 PM -3.0386 -60.0497 225° Southwest  Level Estimated
Wed 03:49:00 PM -3.0386 -60.0497 225° Southwest  Level Estimated
Wed 03:50:00 PM -3.0386 -60.0497 225° Southwest  Level Estimated
Wed 03:51:00 PM -3.0386 -60.0497 225° Southwest  Level Estimated
Wed 03:52:00 PM -3.0386 -60.0497 225° Southwest  Level Estimated
Wed 03:53:00 PM -3.0386 -60.0497 225° Southwest  Level Estimated
Wed 03:54:00 PM -3.0386 -60.0497 225° Southwest  Level Estimated
Wed 03:55:00 PM -3.0386 -60.0497 225° Southwest  Level Estimated
Wed 03:56:00 PM -3.0386 -60.0497 225° Southwest  Level Estimated
Wed 03:57:00 PM -3.0386 -60.0497 225° Southwest  Level Estimated
Wed 03:58:00 PM -3.0386 -60.0497 225° Southwest  Level Estimated
Wed 03:59:00 PM -3.0386 -60.0497 225° Southwest  Level Estimated
Wed 04:00:00 PM -3.0386 -60.0497 225° Southwest  Level Estimated
Wed 04:01:00 PM -3.0386 -60.0497 225° Southwest  Level Estimated
Wed 04:02:00 PM -3.0386 -60.0497 225° Southwest  Level Estimated

Login

Don't have an account? Register now (free) for customized features, flight alerts, and more!